Time;durP1;ratioP1;P1;durP2;ratioP2;P2;SDS_P1;SDS_P2;PMS_P1;PMS_P2;Temp;Humidity;BMP_temperature;BMP_pressure;BME280_temperature;BME280_humidity;BME280_pressure;Samples;Min_cycle;Max_cycle;Signal;HPM_P1;HPM_P2
2021/12/28 00:00:44;;;;;;;94.00;50.15;;;;;;;2.50;100.00;94928.38;6178589;23;20058;-63
2021/12/28 00:03:09;;;;;;;104.75;59.15;;;;;;;2.52;100.00;94929.09;6179663;23;20433;-63
2021/12/28 00:05:35;;;;;;;82.90;45.42;;;;;;;2.31;100.00;94921.09;6179350;23;20088;-63
2021/12/28 00:08:00;;;;;;;91.47;55.05;;;;;;;2.29;100.00;94917.78;6179489;23;20054;-63
2021/12/28 00:10:26;;;;;;;83.82;55.85;;;;;;;2.27;100.00;94906.66;6179657;23;20072;-63
2021/12/28 00:12:51;;;;;;;89.03;42.28;;;;;;;2.20;100.00;94908.88;6153308;23;20009;-63
2021/12/28 00:18:01;;;;;;;75.93;39.58;;;;;;;2.13;100.00;94897.28;6180090;23;20009;-63
2021/12/28 00:20:27;;;;;;;64.32;40.05;;;;;;;2.12;100.00;94885.22;6179405;23;20058;-63
2021/12/28 00:22:53;;;;;;;66.10;42.15;;;;;;;2.05;100.00;94890.03;6179562;23;20013;-63
2021/12/28 00:25:18;;;;;;;67.10;40.33;;;;;;;2.13;100.00;94879.09;6179663;23;20025;-63
2021/12/28 00:27:44;;;;;;;64.97;40.63;;;;;;;2.15;100.00;94875.44;6179487;23;20468;-63
2021/12/28 00:30:10;;;;;;;64.50;42.22;;;;;;;2.15;100.00;94877.22;6179525;23;20001;-63
2021/12/28 00:32:36;;;;;;;67.55;40.50;;;;;;;2.13;100.00;94876.50;6179502;23;20005;-63
2021/12/28 00:35:03;;;;;;;76.00;47.47;;;;;;;2.34;100.00;94868.09;6179690;23;20013;-63
2021/12/28 00:37:28;;;;;;;64.45;43.83;;;;;;;2.38;100.00;94869.53;6179460;22;20533;-63
2021/12/28 00:39:53;;;;;;;60.38;39.53;;;;;;;2.60;100.00;94862.75;6179462;23;20028;-63
2021/12/28 00:42:19;;;;;;;74.13;45.65;;;;;;;2.37;100.00;94857.47;6179244;23;20005;-63
2021/12/28 00:44:44;;;;;;;70.50;46.03;;;;;;;2.26;100.00;94860.84;6179462;23;20009;-63
2021/12/28 00:47:10;;;;;;;69.85;45.35;;;;;;;2.18;100.00;94863.16;6179498;23;20053;-63
2021/12/28 00:49:35;;;;;;;59.97;40.85;;;;;;;2.11;100.00;94863.59;6179651;23;20005;-63
2021/12/28 00:52:00;;;;;;;77.28;43.85;;;;;;;2.08;100.00;94869.03;6179513;23;20025;-63
2021/12/28 00:54:26;;;;;;;82.35;45.15;;;;;;;2.07;100.00;94863.94;6179183;23;20326;-63
2021/12/28 00:56:51;;;;;;;60.88;41.17;;;;;;;2.12;100.00;94860.06;6179496;23;20009;-63
2021/12/28 00:59:17;;;;;;;63.30;43.90;;;;;;;2.09;100.00;94862.03;6179344;23;20001;-63
2021/12/28 01:01:42;;;;;;;57.13;42.42;;;;;;;2.09;100.00;94860.28;6179339;23;20009;-63
2021/12/28 01:04:07;;;;;;;56.35;39.63;;;;;;;2.08;100.00;94857.78;6179180;23;20495;-63
2021/12/28 01:06:33;;;;;;;60.72;38.95;;;;;;;2.05;100.00;94843.28;6179628;23;20029;-63
2021/12/28 01:08:58;;;;;;;56.17;37.10;;;;;;;2.25;100.00;94843.59;6179417;23;20005;-63
2021/12/28 01:11:23;;;;;;;54.03;36.80;;;;;;;2.10;100.00;94843.78;6179251;23;20001;-63
2021/12/28 01:13:49;;;;;;;57.28;37.55;;;;;;;2.15;100.00;94833.88;6178581;23;20025;-63
2021/12/28 01:16:15;;;;;;;58.78;37.35;;;;;;;2.10;100.00;94837.72;6179036;23;20015;-63
2021/12/28 01:18:43;;;;;;;58.78;38.10;;;;;;;2.17;100.00;94836.38;6179313;23;20005;-63
2021/12/28 01:21:09;;;;;;;54.50;38.65;;;;;;;2.11;100.00;94837.63;6179261;23;20036;-63
2021/12/28 01:23:35;;;;;;;53.03;37.95;;;;;;;2.17;100.00;94836.38;6179356;23;20087;-63
2021/12/28 01:26:01;;;;;;;48.20;33.45;;;;;;;2.35;100.00;94816.00;6176873;23;20005;-63
2021/12/28 01:28:27;;;;;;;42.03;30.85;;;;;;;2.32;100.00;94807.59;6179179;23;20076;-63
2021/12/28 01:30:53;;;;;;;42.25;31.50;;;;;;;2.29;100.00;94821.66;6179166;23;20055;-63
2021/12/28 01:33:18;;;;;;;39.15;30.08;;;;;;;2.28;100.00;94823.41;6179138;23;20009;-63
2021/12/28 01:35:44;;;;;;;39.05;29.58;;;;;;;2.28;100.00;94827.78;6179039;23;20134;-63
2021/12/28 01:38:10;;;;;;;37.53;30.23;;;;;;;2.26;100.00;94846.06;6179188;23;20005;-63
2021/12/28 01:40:40;;;;;;;37.30;28.48;;;;;;;2.22;100.00;94855.03;6179020;23;20011;-63
2021/12/28 01:43:17;;;;;;;37.08;27.77;;;;;;;2.32;100.00;94859.56;6179124;23;20084;-63
2021/12/28 01:45:52;;;;;;;38.60;28.33;;;;;;;2.29;100.00;94878.81;6179098;23;20449;-63
2021/12/28 01:48:17;;;;;;;40.92;30.27;;;;;;;2.27;100.00;94897.09;6179127;23;20013;-63
2021/12/28 01:50:44;;;;;;;37.72;31.25;;;;;;;2.28;100.00;94890.94;6178768;23;20077;-63
2021/12/28 01:53:10;;;;;;;43.17;32.22;;;;;;;2.28;100.00;94913.50;6178773;23;20076;-63
2021/12/28 01:55:39;;;;;;;43.88;32.78;;;;;;;2.28;100.00;94914.34;6179124;23;20575;-63
2021/12/28 01:58:04;;;;;;;41.90;32.00;;;;;;;2.33;100.00;94913.19;6176559;23;20061;-63
2021/12/28 02:00:30;;;;;;;41.13;30.67;;;;;;;2.32;100.00;94916.69;6178055;23;20036;-63
2021/12/28 02:02:56;;;;;;;41.95;32.00;;;;;;;2.42;100.00;94917.72;6178906;23;20016;-63
2021/12/28 02:05:22;;;;;;;45.30;33.00;;;;;;;2.37;100.00;94932.81;6261151;22;20368;-63
2021/12/28 02:07:48;;;;;;;46.00;33.13;;;;;;;2.36;100.00;94920.75;6305491;22;20026;-63
2021/12/28 02:10:14;;;;;;;40.90;31.60;;;;;;;2.38;100.00;94916.28;6305544;22;20050;-63
2021/12/28 02:12:39;;;;;;;51.80;34.45;;;;;;;2.37;100.00;94912.84;6305612;22;20060;-63
2021/12/28 02:15:08;;;;;;;41.40;32.88;;;;;;;2.34;100.00;94909.66;6305381;22;20316;-63
2021/12/28 02:17:34;;;;;;;39.15;31.73;;;;;;;2.33;100.00;94910.59;6305544;22;20027;-63
2021/12/28 02:20:05;;;;;;;40.88;31.10;;;;;;;2.31;100.00;94915.03;6305715;22;20096;-63
2021/12/28 02:22:31;;;;;;;44.72;31.63;;;;;;;2.31;100.00;94920.25;6305511;22;20435;-62
2021/12/28 02:24:56;;;;;;;40.97;32.17;;;;;;;2.32;100.00;94929.69;6304112;22;20003;-63
2021/12/28 02:27:21;;;;;;;44.05;32.17;;;;;;;2.31;100.00;94928.88;6305207;22;20056;-63
2021/12/28 02:29:47;;;;;;;41.58;30.20;;;;;;;2.40;100.00;94922.19;6305606;22;20075;-63
2021/12/28 02:32:12;;;;;;;40.45;30.58;;;;;;;2.46;100.00;94905.34;6305328;22;20427;-63
2021/12/28 02:34:38;;;;;;;38.88;31.17;;;;;;;2.63;100.00;94894.50;6305272;22;20011;-63
2021/12/28 02:37:03;;;;;;;37.63;30.25;;;;;;;2.57;100.00;94905.38;6305161;22;19999;-63
2021/12/28 02:39:29;;;;;;;37.00;31.02;;;;;;;2.62;100.00;94908.44;6305236;22;20082;-63
2021/12/28 02:41:54;;;;;;;36.85;30.90;;;;;;;2.52;100.00;94913.50;6305288;22;20039;-63
2021/12/28 02:44:19;;;;;;;35.05;30.02;;;;;;;2.59;100.00;94900.88;6305059;22;20007;-63
2021/12/28 02:46:45;;;;;;;37.83;31.65;;;;;;;2.53;100.00;94894.38;6305328;22;19999;-63
2021/12/28 02:49:10;;;;;;;33.83;29.55;;;;;;;2.52;100.00;94894.50;6305344;22;20491;-63
2021/12/28 02:51:35;;;;;;;38.15;30.02;;;;;;;2.54;100.00;94905.59;6304932;22;20007;-63
2021/12/28 02:54:01;;;;;;;33.33;28.00;;;;;;;2.52;100.00;94929.09;6305250;22;20035;-63
2021/12/28 02:56:26;;;;;;;37.10;27.45;;;;;;;2.50;100.00;94920.56;6305055;22;20332;-63
2021/12/28 02:58:52;;;;;;;32.85;27.73;;;;;;;2.53;100.00;94904.75;6305357;22;20082;-63
2021/12/28 03:01:28;;;;;;;37.95;28.30;;;;;;;2.61;100.00;94927.59;6304978;22;20006;-63
2021/12/28 03:03:55;;;;;;;;;;;;;;;2.70;100.00;94926.09;6290205;22;20379;-63
2021/12/28 03:06:22;;;;;;;27.85;24.73;;;;;;;2.76;100.00;94912.63;6178623;23;19915;-63
2021/12/28 03:08:53;;;;;;;31.52;25.00;;;;;;;2.75;100.00;94912.75;6178854;23;20009;-63
2021/12/28 03:11:20;;;;;;;27.27;23.08;;;;;;;2.70;100.00;94918.28;6178622;23;20001;-63
2021/12/28 03:13:49;;;;;;;34.33;26.70;;;;;;;2.72;100.00;94930.25;6178485;23;20005;-63
2021/12/28 03:16:16;;;;;;;34.92;27.33;;;;;;;2.77;100.00;94910.88;6152174;23;20013;-63
2021/12/28 03:18:42;;;;;;;32.78;26.55;;;;;;;2.71;100.00;94917.34;6178729;23;20434;-63
2021/12/28 03:21:09;;;;;;;33.70;26.17;;;;;;;2.78;100.00;94910.78;6178963;23;20047;-63
2021/12/28 03:23:36;;;;;;;37.50;27.45;;;;;;;2.78;100.00;94913.38;6178126;23;20001;-63
2021/12/28 03:26:03;;;;;;;30.08;24.48;;;;;;;2.72;100.00;94899.06;6179053;23;20531;-63
2021/12/28 03:28:35;;;;;;;30.80;26.17;;;;;;;2.65;100.00;94907.41;6178433;23;20024;-63
2021/12/28 03:31:04;;;;;;;27.05;24.23;;;;;;;2.64;100.00;94919.56;6178301;23;20055;-63
2021/12/28 03:33:32;;;;;;;36.45;26.65;;;;;;;2.69;100.00;94914.03;6178495;23;20055;-63
2021/12/28 03:35:57;;;;;;;30.65;24.85;;;;;;;2.73;100.00;94902.47;6178974;23;20042;-63
2021/12/28 03:38:24;;;;;;;29.63;24.63;;;;;;;2.77;100.00;94895.28;6179694;23;20001;-63
2021/12/28 03:40:50;;;;;;;28.33;23.23;;;;;;;2.79;100.00;94889.03;6179777;23;20341;-63
2021/12/28 03:43:16;;;;;;;27.98;23.13;;;;;;;2.79;100.00;94883.84;6179811;23;20008;-63
2021/12/28 03:45:41;;;;;;;33.58;24.63;;;;;;;2.74;100.00;94885.13;6180163;23;20009;-63
2021/12/28 03:48:07;;;;;;;28.52;22.30;;;;;;;2.70;100.00;94879.31;6180107;23;20008;-63
2021/12/28 03:50:34;;;;;;;30.48;22.50;;;;;;;2.70;100.00;94877.53;6179842;23;20012;-63
2021/12/28 03:53:00;;;;;;;31.00;23.98;;;;;;;2.71;100.00;94880.97;6180154;23;20015;-63
2021/12/28 03:55:27;;;;;;;27.42;23.25;;;;;;;2.72;100.00;94883.47;6153623;22;20005;-63
2021/12/28 03:57:53;;;;;;;28.98;24.02;;;;;;;2.69;100.00;94882.84;6178419;23;20013;-63
2021/12/28 04:00:22;;;;;;;25.58;22.80;;;;;;;2.68;100.00;94882.03;6179883;23;20361;-63
2021/12/28 04:02:48;;;;;;;25.55;20.73;;;;;;;2.82;100.00;94872.38;6179925;23;20001;-63
2021/12/28 04:05:14;;;;;;;26.25;21.58;;;;;;;2.80;100.00;94869.06;6180122;23;20496;-63
2021/12/28 04:07:40;;;;;;;25.48;22.55;;;;;;;2.94;100.00;94873.22;6180841;23;20005;-63
2021/12/28 04:10:08;;;;;;;22.17;19.10;;;;;;;3.04;100.00;94879.41;6180030;23;20448;-63
2021/12/28 04:12:35;;;;;;;21.73;19.42;;;;;;;2.97;100.00;94883.38;6153499;23;20013;-63
2021/12/28 04:15:00;;;;;;;25.67;21.15;;;;;;;2.94;100.00;94881.00;6179901;23;20009;-63
2021/12/28 04:17:28;;;;;;;26.38;22.25;;;;;;;2.91;100.00;94887.28;6180085;23;20054;-63
2021/12/28 04:19:54;;;;;;;26.20;22.52;;;;;;;2.90;100.00;94890.84;6179970;23;20012;-63
2021/12/28 04:22:20;;;;;;;30.40;21.02;;;;;;;2.93;100.00;94868.97;6179829;23;20009;-63
2021/12/28 04:24:46;;;;;;;23.92;20.38;;;;;;;2.99;100.00;94876.31;6179855;23;20005;-63
2021/12/28 04:27:11;;;;;;;23.63;21.15;;;;;;;2.90;100.00;94885.63;6179581;23;20008;-63
2021/12/28 04:29:37;;;;;;;25.65;20.13;;;;;;;2.76;100.00;94891.03;6179859;23;20028;-63
2021/12/28 04:32:02;;;;;;;21.90;19.55;;;;;;;2.72;100.00;94887.81;6153478;23;20020;-63
2021/12/28 04:34:28;;;;;;;24.63;19.13;;;;;;;2.81;100.00;94891.50;6179689;23;20445;-63
2021/12/28 04:36:53;;;;;;;22.38;19.85;;;;;;;2.89;100.00;94894.38;6179686;23;20008;-63
2021/12/28 04:39:19;;;;;;;20.08;18.00;;;;;;;3.09;100.00;94884.22;6179510;23;20007;-63
2021/12/28 04:41:44;;;;;;;21.45;18.85;;;;;;;3.17;100.00;94899.25;6179582;23;20080;-63
2021/12/28 04:44:12;;;;;;;22.10;19.85;;;;;;;3.14;100.00;94913.34;6179692;23;19997;-63
2021/12/28 04:46:38;;;;;;;24.33;20.50;;;;;;;3.05;100.00;94917.47;6179508;23;20005;-63
2021/12/28 04:49:03;;;;;;;22.55;20.13;;;;;;;2.98;100.00;94908.44;6179387;23;20340;-63
2021/12/28 04:51:29;;;;;;;21.55;17.85;;;;;;;3.11;100.00;94911.78;6179604;23;20028;-63
2021/12/28 04:53:55;;;;;;;46.28;20.05;;;;;;;3.18;100.00;94924.31;6179699;23;20036;-63
2021/12/28 04:56:21;;;;;;;25.33;18.50;;;;;;;3.17;100.00;94917.47;6179444;23;20394;-62
2021/12/28 04:58:47;;;;;;;89.65;20.42;;;;;;;2.91;100.00;94922.84;6153303;23;20005;-63
2021/12/28 05:01:12;;;;;;;28.33;19.17;;;;;;;2.98;100.00;94937.88;6178517;23;20030;-63
2021/12/28 05:03:38;;;;;;;37.00;19.80;;;;;;;2.89;100.00;94930.78;6178643;23;20429;-63
2021/12/28 05:06:03;;;;;;;28.35;19.00;;;;;;;2.82;100.00;94942.56;6178027;23;20009;-63
2021/12/28 05:08:29;;;;;;;30.83;18.95;;;;;;;2.77;100.00;94911.72;6177289;23;20058;-63
2021/12/28 05:10:55;;;;;;;22.38;17.00;;;;;;;2.78;100.00;94918.56;6178340;23;20461;-62
2021/12/28 05:13:22;;;;;;;23.83;18.35;;;;;;;2.70;100.00;94921.75;6178300;23;20013;-63
2021/12/28 05:15:48;;;;;;;22.25;17.25;;;;;;;2.64;100.00;94929.16;6179162;23;20105;-62
2021/12/28 05:18:14;;;;;;;19.55;17.15;;;;;;;2.65;100.00;94929.06;6179487;23;20012;-62
2021/12/28 05:20:40;;;;;;;18.92;16.90;;;;;;;2.72;100.00;94919.00;6178922;23;20001;-62
2021/12/28 05:23:06;;;;;;;18.95;17.08;;;;;;;2.73;100.00;94912.88;6179686;23;20008;-61
2021/12/28 05:25:33;;;;;;;20.98;18.88;;;;;;;2.79;100.00;94929.78;6179598;23;20013;-62
2021/12/28 05:27:59;;;;;;;19.85;17.73;;;;;;;2.78;100.00;94949.78;6179634;23;20001;-62
2021/12/28 05:30:25;;;;;;;17.70;15.90;;;;;;;2.76;100.00;94956.81;6179505;23;20033;-62
2021/12/28 05:32:50;;;;;;;20.23;18.13;;;;;;;2.79;100.00;94945.38;6179676;23;20001;-62
2021/12/28 05:35:16;;;;;;;20.25;18.08;;;;;;;2.83;100.00;94944.22;6179439;23;20005;-62
2021/12/28 05:37:42;;;;;;;18.42;16.27;;;;;;;2.88;100.00;94929.13;6179456;23;20001;-62
2021/12/28 05:40:10;;;;;;;23.92;17.50;;;;;;;2.98;100.00;94929.25;6179578;23;20032;-62
2021/12/28 05:42:35;;;;;;;30.35;18.60;;;;;;;2.82;100.00;94939.97;6179292;23;20028;-62
2021/12/28 05:45:01;;;;;;;22.55;18.73;;;;;;;2.79;100.00;94935.00;6179733;23;20425;-62
2021/12/28 05:47:26;;;;;;;43.28;18.67;;;;;;;2.77;100.00;94924.72;6179528;23;20042;-62
2021/12/28 05:49:52;;;;;;;20.38;17.33;;;;;;;2.85;100.00;94939.72;6179702;23;20088;-62
2021/12/28 05:52:17;;;;;;;20.40;18.27;;;;;;;2.94;100.00;94938.22;6179544;23;20506;-62
2021/12/28 05:54:43;;;;;;;20.02;17.95;;;;;;;2.88;100.00;94918.72;6179256;23;20016;-62
2021/12/28 05:57:08;;;;;;;41.60;19.17;;;;;;;2.77;100.00;94911.72;6179543;23;20009;-62
2021/12/28 05:59:35;;;;;;;26.25;18.08;;;;;;;2.84;100.00;94892.13;6179227;23;20032;-62
2021/12/28 06:02:01;;;;;;;23.85;16.85;;;;;;;2.80;100.00;94908.03;6179510;23;20437;-62
2021/12/28 06:04:26;;;;;;;18.55;15.80;;;;;;;2.96;100.00;94905.97;6179261;23;20084;-62
2021/12/28 06:06:52;;;;;;;18.38;16.50;;;;;;;2.88;100.00;94925.69;6179527;23;20036;-62
2021/12/28 06:09:17;;;;;;;14.88;13.25;;;;;;;2.96;100.00;94941.53;6179305;23;20005;-62
2021/12/28 06:11:43;;;;;;;25.17;14.70;;;;;;;2.85;100.00;94948.38;6179321;23;20001;-62
2021/12/28 06:14:08;;;;;;;14.98;13.57;;;;;;;2.82;100.00;94940.81;6179350;23;19997;-61
2021/12/28 06:16:35;;;;;;;14.30;12.90;;;;;;;2.84;100.00;94941.50;6179433;23;20451;-62
2021/12/28 06:19:01;;;;;;;12.13;11.02;;;;;;;2.89;100.00;94958.53;6179771;23;20051;-62
2021/12/28 06:21:30;;;;;;;13.07;11.75;;;;;;;2.81;100.00;94978.13;6178417;23;20069;-62
2021/12/28 06:23:56;;;;;;;16.88;14.20;;;;;;;2.77;100.00;94957.66;6179444;23;20016;-62
2021/12/28 06:26:21;;;;;;;14.13;12.88;;;;;;;2.77;100.00;94953.31;6179326;23;20004;-62
2021/12/28 06:28:47;;;;;;;14.05;12.68;;;;;;;2.91;100.00;94956.66;6179609;23;20005;-62
2021/12/28 06:31:12;;;;;;;13.77;12.48;;;;;;;2.84;100.00;94954.50;6178540;23;20072;-62
2021/12/28 06:33:37;;;;;;;13.15;11.85;;;;;;;2.85;100.00;94921.53;6178937;23;20055;-62
2021/12/28 06:36:05;;;;;;;14.10;12.80;;;;;;;2.81;100.00;94930.50;6178869;23;20423;-62
2021/12/28 06:38:31;;;;;;;14.38;12.98;;;;;;;2.79;100.00;94943.63;6177663;23;20031;-62
2021/12/28 06:40:56;;;;;;;14.07;12.75;;;;;;;2.73;100.00;94954.44;6179231;23;20075;-62
2021/12/28 06:43:21;;;;;;;14.65;13.25;;;;;;;2.78;100.00;94951.53;6179298;23;20094;-62
2021/12/28 06:45:47;;;;;;;13.88;12.55;;;;;;;2.76;100.00;94945.63;6179268;23;20012;-62
2021/12/28 06:48:12;;;;;;;14.75;13.23;;;;;;;2.74;100.00;94952.69;6178727;23;20484;-62
2021/12/28 06:50:37;;;;;;;16.10;14.60;;;;;;;2.78;100.00;94943.72;6179026;23;20345;-62
2021/12/28 06:53:03;;;;;;;16.58;15.07;;;;;;;2.72;100.00;94932.84;6179100;23;20074;-62
2021/12/28 06:55:28;;;;;;;17.90;16.10;;;;;;;2.78;100.00;94938.53;6178996;23;20005;-62
2021/12/28 06:57:54;;;;;;;17.88;16.25;;;;;;;2.77;100.00;94948.13;6179553;23;20001;-62
2021/12/28 07:00:20;;;;;;;18.75;17.08;;;;;;;2.77;100.00;94949.88;6179165;23;20005;-62
2021/12/28 07:02:45;;;;;;;19.10;17.33;;;;;;;2.73;100.00;94949.25;6179029;23;20072;-62
2021/12/28 07:05:12;;;;;;;26.05;23.42;;;;;;;2.74;100.00;94947.50;6179002;23;20017;-62
2021/12/28 07:07:38;;;;;;;25.27;22.75;;;;;;;2.77;100.00;94970.66;6179134;23;20031;-62
2021/12/28 07:10:06;;;;;;;18.15;16.48;;;;;;;2.71;100.00;94975.38;6178720;23;20421;-62
2021/12/28 07:12:31;;;;;;;17.17;15.40;;;;;;;2.70;100.00;94962.47;6178790;23;20080;-62
2021/12/28 07:14:57;;;;;;;17.02;15.48;;;;;;;2.71;100.00;94975.38;6178973;23;20086;-62
2021/12/28 07:17:22;;;;;;;16.10;14.60;;;;;;;2.72;100.00;94971.00;6178966;23;20437;-62
2021/12/28 07:19:47;;;;;;;16.75;15.23;;;;;;;2.76;100.00;94961.22;6179048;23;20444;-62
2021/12/28 07:22:13;;;;;;;17.65;16.02;;;;;;;2.70;100.00;94970.28;6178994;23;20387;-62
2021/12/28 07:24:38;;;;;;;15.60;14.25;;;;;;;2.69;100.00;94976.41;6179166;23;20001;-62
2021/12/28 07:27:04;;;;;;;17.05;14.90;;;;;;;2.70;100.00;94959.88;6152633;23;20008;-62
2021/12/28 07:29:30;;;;;;;15.45;14.15;;;;;;;2.77;100.00;94962.88;6178357;23;20084;-62
2021/12/28 07:31:55;;;;;;;19.45;17.55;;;;;;;2.82;100.00;94966.81;6179137;23;20005;-62
2021/12/28 07:34:20;;;;;;;20.50;18.50;;;;;;;2.85;100.00;94976.97;6178585;23;20001;-62
2021/12/28 07:36:46;;;;;;;18.13;16.33;;;;;;;2.84;100.00;94979.66;6178662;23;20001;-62
2021/12/28 07:39:11;;;;;;;17.02;15.32;;;;;;;2.83;100.00;94968.47;6178759;23;20373;-62
2021/12/28 07:41:37;;;;;;;17.38;15.73;;;;;;;2.83;100.00;94983.22;6178743;23;20337;-64
2021/12/28 07:44:03;;;;;;;18.23;16.42;;;;;;;2.89;100.00;94994.94;6179016;22;20005;-62
2021/12/28 07:46:29;;;;;;;19.58;17.58;;;;;;;2.86;100.00;95008.97;6178728;23;20016;-65
2021/12/28 07:48:54;;;;;;;17.45;15.95;;;;;;;2.91;100.00;94999.09;6178691;23;20005;-63
2021/12/28 07:51:19;;;;;;;19.52;17.63;;;;;;;2.86;100.00;95017.63;6178601;23;20012;-62
2021/12/28 07:53:45;;;;;;;19.77;17.77;;;;;;;2.88;100.00;95020.13;6178295;23;20032;-62
2021/12/28 07:56:10;;;;;;;20.90;18.80;;;;;;;2.90;100.00;95020.00;6177631;23;20041;-63
2021/12/28 07:58:36;;;;;;;20.65;18.55;;;;;;;2.96;100.00;95024.75;6178013;23;20005;-63
2021/12/28 08:01:02;;;;;;;21.55;19.38;;;;;;;3.09;100.00;95027.28;6177809;23;20485;-63
2021/12/28 08:03:27;;;;;;;22.77;20.50;;;;;;;3.00;100.00;95021.00;6177880;23;20032;-63
2021/12/28 08:05:53;;;;;;;23.25;20.05;;;;;;;3.01;100.00;95023.47;6177574;23;20013;-62
2021/12/28 08:08:19;;;;;;;19.75;17.88;;;;;;;2.99;100.00;95027.97;6177597;23;20005;-62
2021/12/28 08:10:45;;;;;;;16.83;15.18;;;;;;;3.02;100.00;95024.31;6178002;23;20015;-62
2021/12/28 08:13:11;;;;;;;17.73;15.95;;;;;;;3.13;100.00;95026.13;6176256;23;20028;-62
2021/12/28 08:15:37;;;;;;;20.88;18.88;;;;;;;3.02;100.00;95026.94;6150883;23;20016;-62
2021/12/28 08:18:04;;;;;;;21.77;19.58;;;;;;;3.01;100.00;95033.06;6177687;23;20072;-62
2021/12/28 08:20:30;;;;;;;22.88;20.13;;;;;;;2.99;100.00;95032.34;6176842;23;20000;-62
2021/12/28 08:22:57;;;;;;;31.50;25.77;;;;;;;3.03;100.00;95038.13;6178562;23;20456;-62
2021/12/28 08:25:23;;;;;;;36.70;28.10;;;;;;;3.03;100.00;95049.38;6179337;23;20333;-62
2021/12/28 08:27:50;;;;;;;29.00;26.08;;;;;;;3.00;100.00;95065.22;6177655;23;20001;-62
2021/12/28 08:30:18;;;;;;;32.33;24.92;;;;;;;2.90;100.00;95064.22;6152251;23;20543;-60
2021/12/28 08:32:44;;;;;;;26.17;22.23;;;;;;;2.99;100.00;95066.97;6179431;23;20093;-60
2021/12/28 08:35:11;;;;;;;25.98;23.38;;;;;;;2.96;100.00;95072.41;6179301;23;20005;-60
2021/12/28 08:37:38;;;;;;;28.05;23.90;;;;;;;2.98;100.00;95070.53;6178207;23;20004;-61
2021/12/28 08:40:05;;;;;;;26.75;24.00;;;;;;;3.09;100.00;95068.91;6179408;23;20341;-61
2021/12/28 08:42:30;;;;;;;26.73;24.02;;;;;;;3.12;100.00;95072.13;6178417;23;20044;-61
2021/12/28 08:44:56;;;;;;;26.50;21.55;;;;;;;3.13;100.00;95076.38;6179149;23;20337;-61
2021/12/28 08:47:26;;;;;;;29.08;24.95;;;;;;;3.14;100.00;95077.22;6176982;23;20005;-62
2021/12/28 08:49:52;;;;;;;24.65;19.88;;;;;;;3.12;100.00;95066.09;6177840;23;20005;-61
2021/12/28 08:52:18;;;;;;;24.63;21.48;;;;;;;3.12;100.00;95094.72;6178654;23;20002;-61
2021/12/28 08:54:43;;;;;;;23.98;21.42;;;;;;;3.06;100.00;95101.19;6178824;23;20016;-60
2021/12/28 08:57:09;;;;;;;22.25;19.95;;;;;;;3.04;100.00;95095.25;6179302;23;20001;-60
2021/12/28 08:59:34;;;;;;;23.52;21.15;;;;;;;3.06;100.00;95093.38;6179130;23;20059;-60
2021/12/28 09:02:00;;;;;;;27.17;22.98;;;;;;;3.16;100.00;95103.94;6179184;23;20005;-60
2021/12/28 09:04:25;;;;;;;28.58;25.48;;;;;;;3.27;100.00;95080.56;6175114;23;20461;-60
2021/12/28 09:06:51;;;;;;;45.50;29.50;;;;;;;3.20;100.00;95096.72;6176051;23;20009;-60
2021/12/28 09:09:16;;;;;;;34.80;28.20;;;;;;;3.15;100.00;95103.09;6175026;23;20004;-62
2021/12/28 09:11:43;;;;;;;31.25;24.52;;;;;;;3.20;100.00;95130.56;6177419;23;20005;-61
2021/12/28 09:14:09;;;;;;;27.35;24.27;;;;;;;3.11;100.00;95129.47;6176984;23;20008;-60
2021/12/28 09:16:34;;;;;;;26.58;23.73;;;;;;;3.34;100.00;95127.78;6178646;23;20433;-60
2021/12/28 09:19:00;;;;;;;26.80;23.15;;;;;;;3.23;100.00;95125.16;6178394;23;20348;-61
2021/12/28 09:21:25;;;;;;;30.08;24.75;;;;;;;3.26;100.00;95123.13;6177243;23;20017;-61
2021/12/28 09:23:50;;;;;;;31.33;24.70;;;;;;;3.20;100.00;95130.56;6177310;23;20072;-61
2021/12/28 09:26:16;;;;;;;40.83;28.55;;;;;;;3.15;100.00;95125.69;6177199;23;20012;-61
2021/12/28 09:28:41;;;;;;;47.35;42.53;;;;;;;3.15;100.00;95142.13;6178204;23;20085;-61
2021/12/28 09:31:07;;;;;;;32.00;28.17;;;;;;;3.17;100.00;95141.19;6179020;23;20008;-61
2021/12/28 09:33:32;;;;;;;27.63;24.33;;;;;;;3.19;100.00;95149.72;6176113;23;20005;-61
2021/12/28 09:36:00;;;;;;;26.92;24.05;;;;;;;3.21;100.00;95155.66;6178256;23;20388;-61
2021/12/28 09:38:26;;;;;;;29.40;26.20;;;;;;;3.22;100.00;95160.72;6177485;23;20441;-61
2021/12/28 09:40:51;;;;;;;31.40;28.08;;;;;;;3.19;100.00;95163.56;6176170;23;20036;-60
2021/12/28 09:43:17;;;;;;;27.40;24.60;;;;;;;3.51;100.00;95149.16;6177802;23;20372;-61
2021/12/28 09:45:43;;;;;;;31.17;26.60;;;;;;;3.35;100.00;95149.47;6178453;23;20017;-61
2021/12/28 09:48:10;;;;;;;33.35;27.83;;;;;;;3.28;100.00;95141.25;6150941;23;20012;-61
2021/12/28 09:50:39;;;;;;;27.77;24.83;;;;;;;3.32;100.00;95140.09;6177572;23;20001;-62
2021/12/28 09:53:04;;;;;;;29.40;26.35;;;;;;;3.37;100.00;95142.38;6178341;23;20472;-61
2021/12/28 09:55:30;;;;;;;27.38;24.30;;;;;;;3.38;100.00;95142.25;6177660;23;20009;-62
2021/12/28 09:57:56;;;;;;;28.55;25.08;;;;;;;3.40;100.00;95149.94;6177534;23;20016;-62
2021/12/28 10:00:22;;;;;;;26.77;24.08;;;;;;;3.37;100.00;95143.19;6177799;23;20054;-62
2021/12/28 10:02:49;;;;;;;28.00;25.00;;;;;;;3.45;100.00;95140.03;6178213;23;20009;-61
2021/12/28 10:05:20;;;;;;;31.90;27.20;;;;;;;3.49;100.00;95130.22;6177088;23;20013;-61
2021/12/28 10:07:50;;;;;;;33.58;28.10;;;;;;;3.40;100.00;95134.34;6176255;23;20001;-61
2021/12/28 10:10:16;;;;;;;32.88;29.40;;;;;;;3.41;100.00;95133.38;6176923;22;20001;-61
2021/12/28 10:12:45;;;;;;;31.75;28.35;;;;;;;3.48;100.00;95142.41;6177760;23;20005;-60
2021/12/28 10:15:15;;;;;;;30.15;26.98;;;;;;;3.52;100.00;95148.22;6177253;23;20334;-62
2021/12/28 10:17:43;;;;;;;27.88;24.95;;;;;;;3.54;100.00;95159.34;6178078;23;20012;-60
2021/12/28 10:20:14;;;;;;;25.30;22.73;;;;;;;3.65;100.00;95177.63;6178068;23;20004;-60
2021/12/28 10:22:39;;;;;;;27.08;24.52;;;;;;;3.59;100.00;95152.03;6178222;22;20084;-60
2021/12/28 10:25:09;;;;;;;29.13;26.30;;;;;;;3.74;100.00;95163.09;6178506;23;20498;-62
2021/12/28 10:27:36;;;;;;;28.63;25.63;;;;;;;3.69;100.00;95165.19;6177905;23;20008;-61
2021/12/28 10:30:09;;;;;;;30.63;27.52;;;;;;;3.65;100.00;95159.41;6178585;23;20009;-61
2021/12/28 10:32:35;;;;;;;32.58;29.25;;;;;;;3.68;100.00;95156.59;6152581;22;20001;-62
2021/12/28 10:35:10;;;;;;;32.20;28.92;;;;;;;3.81;100.00;95176.50;6178805;23;20074;-61
2021/12/28 10:37:39;;;;;;;33.33;29.80;;;;;;;3.93;100.00;95185.16;6178477;23;20032;-61
2021/12/28 10:40:11;;;;;;;30.42;27.17;;;;;;;3.81;100.00;95179.94;6177071;23;20456;-61
2021/12/28 10:42:36;;;;;;;31.02;27.83;;;;;;;3.71;100.00;95169.38;6177789;23;20010;-61
2021/12/28 10:45:03;;;;;;;31.00;27.92;;;;;;;3.67;100.00;95180.09;6175831;23;20220;-61
2021/12/28 10:47:28;;;;;;;32.53;28.35;;;;;;;3.65;100.00;95182.84;6178102;23;20012;-61
2021/12/28 10:49:54;;;;;;;28.40;25.45;;;;;;;3.63;100.00;95187.31;6176481;23;20005;-61
2021/12/28 10:52:37;;;;;;;27.27;24.60;;;;;;;3.60;100.00;95179.72;6174405;23;20001;-60
2021/12/28 10:55:23;;;;;;;28.48;25.30;;;;;;;3.62;100.00;95187.44;6176442;23;20005;-61
2021/12/28 10:57:49;;;;;;;41.72;36.97;;;;;;;3.66;100.00;95194.06;6176429;23;20009;-60
2021/12/28 11:00:33;;;;;;;32.75;29.33;;;;;;;3.72;100.00;95189.25;6176445;23;20005;-60
2021/12/28 11:03:17;;;;;;;34.67;31.27;;;;;;;4.01;100.00;95162.81;6177578;23;20028;-60
2021/12/28 11:05:53;;;;;;;31.80;28.50;;;;;;;3.81;100.00;95166.06;6175758;23;20017;-61
2021/12/28 11:08:18;;;;;;;31.33;28.02;;;;;;;4.04;100.00;95193.03;6177357;23;20005;-60
2021/12/28 11:10:57;;;;;;;32.20;28.73;;;;;;;3.78;100.00;95210.56;6177734;23;20016;-60
2021/12/28 11:13:26;;;;;;;40.80;31.50;;;;;;;3.71;100.00;95211.03;6177692;23;20012;-60
2021/12/28 11:15:52;;;;;;;33.20;29.35;;;;;;;3.71;100.00;95220.59;6177016;23;20012;-61